createdAt,value
2018-06-12T00:00:51.007Z,89.1
2018-06-12T00:01:52.399Z,88.1
2018-06-12T00:02:53.792Z,87.1
2018-06-12T00:03:55.185Z,85.3
2018-06-12T00:04:56.576Z,86.1
2018-06-12T00:05:58.769Z,85.7
2018-06-12T00:07:00.164Z,85.1
2018-06-12T00:08:01.558Z,84.7
2018-06-12T00:09:02.967Z,84.9
2018-06-12T00:10:04.371Z,84.6
2018-06-12T00:11:05.762Z,84.1
2018-06-12T00:12:07.151Z,83.5
2018-06-12T00:13:08.549Z,83.8
2018-06-12T00:14:09.940Z,83.6
2018-06-12T00:15:11.330Z,82.7
2018-06-12T00:16:12.724Z,83.0
2018-06-12T00:17:14.196Z,82.8
2018-06-12T00:18:15.590Z,82.6
2018-06-12T00:19:16.979Z,83.0
2018-06-12T00:20:18.373Z,82.9
2018-06-12T00:21:19.770Z,82.8
2018-06-12T00:22:21.166Z,82.9
2018-06-12T00:23:22.559Z,82.9
2018-06-12T00:24:23.953Z,83.2
2018-06-12T00:25:25.346Z,82.7
2018-06-12T00:26:26.737Z,82.9
2018-06-12T00:27:28.126Z,82.3
2018-06-12T00:28:29.523Z,82.3
2018-06-12T00:29:30.919Z,82.8
2018-06-12T00:30:32.311Z,82.8
2018-06-12T00:31:33.734Z,83.1
2018-06-12T00:32:35.126Z,82.9
2018-06-12T00:33:36.520Z,82.8
2018-06-12T00:34:37.918Z,82.9
2018-06-12T00:35:39.304Z,82.6
2018-06-12T00:36:40.697Z,82.9
2018-06-12T00:37:42.084Z,82.9
2018-06-12T00:38:43.475Z,82.8
2018-06-12T00:39:44.869Z,82.9
2018-06-12T00:40:46.263Z,82.8
2018-06-12T00:41:47.662Z,83.2
2018-06-12T00:42:49.048Z,82.8
2018-06-12T00:43:50.444Z,83.1
2018-06-12T00:44:51.837Z,82.5
2018-06-12T00:45:53.234Z,83.1
2018-06-12T00:46:54.626Z,82.8
2018-06-12T00:47:56.015Z,82.7
2018-06-12T00:48:57.409Z,82.7
2018-06-12T00:49:58.804Z,82.8
2018-06-12T00:51:00.203Z,83.5
2018-06-12T00:52:01.593Z,83.8
2018-06-12T00:53:02.986Z,84.2
2018-06-12T00:54:04.374Z,84.1
2018-06-12T00:55:05.764Z,84.4
2018-06-12T00:56:07.170Z,84.2
2018-06-12T00:57:08.559Z,84.6
2018-06-12T00:58:09.944Z,85.1
2018-06-12T00:59:11.341Z,85.5
2018-06-12T01:00:12.739Z,86.0
2018-06-12T01:01:14.126Z,85.7
2018-06-12T01:02:15.610Z,85.8
2018-06-12T01:03:17.022Z,86.1
2018-06-12T01:04:18.419Z,86.0
2018-06-12T01:05:19.816Z,86.3
2018-06-12T01:06:21.211Z,85.7
2018-06-12T01:07:22.614Z,86.4
2018-06-12T01:08:24.007Z,86.1
2018-06-12T01:09:25.395Z,86.4
2018-06-12T01:10:26.791Z,86.7
2018-06-12T01:11:28.184Z,87.1
2018-06-12T01:12:29.582Z,87.0
2018-06-12T01:13:30.977Z,87.1
2018-06-12T01:14:32.371Z,86.9
2018-06-12T01:15:33.758Z,87.2
2018-06-12T01:16:35.149Z,87.1
2018-06-12T01:17:36.541Z,87.1
2018-06-12T01:18:37.932Z,88.0
2018-06-12T01:19:39.329Z,88.0
2018-06-12T01:20:40.724Z,88.1
2018-06-12T01:21:42.119Z,87.8
2018-06-12T01:22:43.509Z,88.1
2018-06-12T01:23:44.901Z,87.9
2018-06-12T01:24:46.296Z,87.8
2018-06-12T01:25:47.689Z,88.0
2018-06-12T01:26:49.083Z,88.6
2018-06-12T01:27:50.480Z,88.6
2018-06-12T01:28:51.874Z,88.6
2018-06-12T01:29:53.263Z,88.5
2018-06-12T01:30:54.654Z,88.8
2018-06-12T01:31:56.049Z,88.7
2018-06-12T01:32:57.449Z,88.9
2018-06-12T01:33:58.832Z,89.1
2018-06-12T01:35:00.236Z,89.2
2018-06-12T01:36:01.621Z,89.0
2018-06-12T01:37:03.014Z,89.1
2018-06-12T01:38:04.453Z,88.4
2018-06-12T01:39:05.800Z,89.0
2018-06-12T01:40:07.199Z,88.7
2018-06-12T01:41:08.592Z,88.6
2018-06-12T01:42:09.984Z,89.2
2018-06-12T01:43:11.378Z,89.1
2018-06-12T01:44:12.768Z,89.2
2018-06-12T01:45:14.166Z,89.4
2018-06-12T01:46:15.602Z,89.9
2018-06-12T01:47:16.977Z,89.8
2018-06-12T01:48:18.367Z,89.2
2018-06-12T01:49:19.766Z,89.0
2018-06-12T01:50:21.157Z,88.9
2018-06-12T01:51:22.547Z,89.0
2018-06-12T01:52:23.941Z,89.3
2018-06-12T01:53:25.340Z,89.3
2018-06-12T01:54:26.734Z,89.6
2018-06-12T01:55:28.133Z,89.6
2018-06-12T01:56:29.518Z,89.0
2018-06-12T01:57:30.917Z,89.0
2018-06-12T01:58:32.308Z,89.0
2018-06-12T01:59:33.700Z,89.2
2018-06-12T02:00:35.091Z,89.0
2018-06-12T02:01:36.490Z,89.0
2018-06-12T02:02:37.877Z,88.9
2018-06-12T02:03:39.268Z,88.9
2018-06-12T02:04:40.669Z,89.2
2018-06-12T02:05:42.056Z,89.2
2018-06-12T02:06:43.449Z,89.6
2018-06-12T02:07:44.846Z,89.4
2018-06-12T02:08:46.238Z,89.7
2018-06-12T02:09:47.631Z,89.5
2018-06-12T02:10:49.028Z,89.5
2018-06-12T02:11:50.427Z,89.2
2018-06-12T02:12:51.814Z,89.1
2018-06-12T02:13:53.213Z,89.3
2018-06-12T02:14:54.599Z,89.8
2018-06-12T02:15:55.994Z,89.7
2018-06-12T02:16:57.391Z,90.0
2018-06-12T02:17:58.777Z,89.7
2018-06-12T02:19:00.171Z,90.4
2018-06-12T02:20:01.564Z,89.9
2018-06-12T02:21:02.951Z,90.0
2018-06-12T02:22:04.345Z,90.1
2018-06-12T02:23:05.762Z,89.9
2018-06-12T02:24:07.159Z,90.0
2018-06-12T02:25:08.554Z,90.4
2018-06-12T02:26:09.943Z,90.4
2018-06-12T02:27:11.333Z,90.1
2018-06-12T02:28:12.725Z,89.8
2018-06-12T02:29:14.117Z,89.6
2018-06-12T02:30:15.513Z,89.5
2018-06-12T02:31:16.980Z,89.4
2018-06-12T02:32:18.440Z,89.6
2018-06-12T02:33:19.836Z,89.6
2018-06-12T02:34:21.233Z,89.6
2018-06-12T02:35:22.619Z,89.4
2018-06-12T02:36:24.010Z,88.9
2018-06-12T02:37:25.425Z,89.0
2018-06-12T02:38:26.820Z,89.0
2018-06-12T02:39:28.206Z,88.9
2018-06-12T02:40:29.601Z,89.1
2018-06-12T02:41:30.990Z,89.0
2018-06-12T02:42:33.661Z,88.9
2018-06-12T02:43:35.056Z,89.0
2018-06-12T02:44:36.519Z,89.3
2018-06-12T02:45:37.854Z,88.8
2018-06-12T02:46:39.242Z,89.1
2018-06-12T02:47:40.635Z,89.7
2018-06-12T02:48:42.024Z,89.8
2018-06-12T02:49:43.415Z,89.3
2018-06-12T02:50:44.808Z,89.8
2018-06-12T02:51:46.203Z,90.0
2018-06-12T02:52:47.592Z,90.2
2018-06-12T02:53:48.984Z,90.4
2018-06-12T02:54:50.379Z,90.8
2018-06-12T02:55:51.764Z,91.4
2018-06-12T02:56:53.157Z,90.8
2018-06-12T02:57:54.551Z,91.6
2018-06-12T02:58:55.945Z,91.7
2018-06-12T02:59:57.339Z,91.8
2018-06-12T03:00:58.734Z,91.9
2018-06-12T03:02:00.126Z,91.8
2018-06-12T03:03:01.517Z,91.9
2018-06-12T03:04:02.921Z,92.1
2018-06-12T03:05:05.113Z,92.7
2018-06-12T03:06:06.508Z,92.3
2018-06-12T03:07:07.912Z,92.5
2018-06-12T03:08:09.306Z,92.0
2018-06-12T03:09:10.699Z,91.7
2018-06-12T03:10:12.089Z,92.7
2018-06-12T03:11:13.488Z,92.6
2018-06-12T03:12:14.880Z,92.3
2018-06-12T03:13:16.288Z,92.6
2018-06-12T03:14:17.702Z,92.8
2018-06-12T03:15:19.095Z,92.6
2018-06-12T03:16:20.491Z,92.4
2018-06-12T03:17:21.883Z,92.5
2018-06-12T03:18:23.277Z,92.6
2018-06-12T03:19:24.671Z,92.1
2018-06-12T03:20:26.065Z,92.7
2018-06-12T03:21:27.468Z,92.1
2018-06-12T03:22:28.850Z,92.7
2018-06-12T03:23:30.245Z,92.3
2018-06-12T03:24:31.640Z,92.4
2018-06-12T03:25:33.028Z,92.5
2018-06-12T03:26:34.421Z,92.6
2018-06-12T03:27:35.816Z,92.6
2018-06-12T03:28:37.209Z,91.7
2018-06-12T03:29:38.603Z,91.9
2018-06-12T03:30:40.000Z,92.0
2018-06-12T03:31:41.396Z,91.7
2018-06-12T03:32:42.788Z,91.3
2018-06-12T03:33:44.180Z,91.2
2018-06-12T03:34:45.571Z,91.3
2018-06-12T03:35:46.964Z,91.4
2018-06-12T03:36:48.381Z,91.3
2018-06-12T03:37:49.776Z,91.9
2018-06-12T03:38:51.168Z,91.6
2018-06-12T03:39:52.559Z,91.8
2018-06-12T03:40:53.951Z,91.7
2018-06-12T03:41:55.345Z,92.7
2018-06-12T03:42:56.743Z,92.5
2018-06-12T03:43:58.137Z,92.3
2018-06-12T03:44:59.537Z,92.0
2018-06-12T03:46:00.928Z,92.1
2018-06-12T03:47:02.323Z,92.5
2018-06-12T03:48:03.718Z,92.7
2018-06-12T03:49:05.112Z,92.9
2018-06-12T03:50:06.505Z,93.4
2018-06-12T03:51:07.897Z,92.9
2018-06-12T03:52:09.296Z,93.2
2018-06-12T03:53:10.695Z,93.2
2018-06-12T03:54:12.090Z,93.8
2018-06-12T03:55:13.488Z,93.8
2018-06-12T03:56:14.916Z,93.7
2018-06-12T03:57:16.313Z,94.4
2018-06-12T03:58:17.772Z,93.7
2018-06-12T03:59:19.163Z,94.4
2018-06-12T04:00:20.563Z,94.4
2018-06-12T04:01:21.957Z,94.4
2018-06-12T04:02:23.352Z,94.5
2018-06-12T04:03:24.744Z,94.2
2018-06-12T04:04:26.521Z,94.0
2018-06-12T04:05:27.949Z,95.0
2018-06-12T04:06:29.349Z,94.1
2018-06-12T04:07:30.745Z,94.3
2018-06-12T04:08:32.138Z,95.2
2018-06-12T04:09:33.531Z,94.4
2018-06-12T04:10:34.927Z,94.0
2018-06-12T04:11:36.323Z,94.1
2018-06-12T04:12:37.726Z,94.5
2018-06-12T04:13:39.121Z,94.5
2018-06-12T04:14:40.558Z,94.5
2018-06-12T04:15:41.951Z,94.5
2018-06-12T04:16:43.341Z,94.5
2018-06-12T04:17:44.763Z,94.5
2018-06-12T04:18:46.160Z,94.2
2018-06-12T04:19:47.556Z,95.0
2018-06-12T04:20:48.958Z,95.0
2018-06-12T04:21:50.352Z,95.2
2018-06-12T04:22:51.749Z,95.3
2018-06-12T04:23:53.150Z,94.4
2018-06-12T04:24:54.543Z,94.4
2018-06-12T04:25:55.939Z,94.0
2018-06-12T04:26:57.331Z,94.3
2018-06-12T04:27:59.109Z,94.5
2018-06-12T04:29:00.498Z,94.7
2018-06-12T04:30:01.911Z,95.2
2018-06-12T04:31:03.300Z,95.1
2018-06-12T04:32:04.696Z,95.1
2018-06-12T04:33:06.098Z,95.3
2018-06-12T04:34:07.492Z,95.8
2018-06-12T04:35:08.898Z,95.4
2018-06-12T04:36:10.286Z,95.9
2018-06-12T04:37:11.683Z,95.8
2018-06-12T04:38:13.077Z,95.1
2018-06-12T04:39:14.476Z,95.2
2018-06-12T04:40:15.872Z,95.1
2018-06-12T04:41:17.324Z,95.2
2018-06-12T04:42:18.709Z,94.9
2018-06-12T04:43:20.109Z,95.1
2018-06-12T04:44:21.549Z,95.3
2018-06-12T04:45:22.946Z,95.7
2018-06-12T04:46:24.343Z,95.4
2018-06-12T04:47:25.740Z,95.4
2018-06-12T04:48:27.136Z,94.9
2018-06-12T04:49:28.536Z,95.1
2018-06-12T04:50:29.935Z,95.0
2018-06-12T04:51:31.335Z,94.9
2018-06-12T04:52:32.728Z,95.5
2018-06-12T04:53:34.128Z,95.3
2018-06-12T04:54:35.537Z,96.0
2018-06-12T04:55:36.927Z,95.1
2018-06-12T04:56:38.334Z,95.5
2018-06-12T04:57:39.747Z,95.1
2018-06-12T04:58:41.148Z,95.4
2018-06-12T04:59:42.562Z,95.4
2018-06-12T05:00:43.995Z,95.4
2018-06-12T05:01:45.392Z,95.7
2018-06-12T05:02:46.823Z,94.9
2018-06-12T05:03:48.221Z,95.2
2018-06-12T05:04:49.613Z,95.7
2018-06-12T05:05:51.008Z,96.2
2018-06-12T05:06:52.401Z,96.2
2018-06-12T05:07:53.804Z,96.1
2018-06-12T05:08:55.197Z,95.3
2018-06-12T05:09:56.597Z,95.7
2018-06-12T05:10:58.015Z,95.8
2018-06-12T05:11:59.414Z,96.1
2018-06-12T05:13:00.853Z,96.0
2018-06-12T05:14:02.254Z,96.0
2018-06-12T05:15:03.648Z,96.2
2018-06-12T05:16:05.042Z,96.5
2018-06-12T05:17:06.437Z,96.0
2018-06-12T05:18:07.842Z,95.9
2018-06-12T05:19:09.235Z,95.8
2018-06-12T05:20:10.631Z,96.0
2018-06-12T05:21:12.028Z,96.3
2018-06-12T05:22:13.426Z,96.3
2018-06-12T05:23:14.826Z,96.2
2018-06-12T05:24:16.216Z,96.2
2018-06-12T05:25:17.703Z,96.1
2018-06-12T05:26:19.160Z,96.1
2018-06-12T05:27:20.556Z,96.2
2018-06-12T05:28:21.956Z,96.1
2018-06-12T05:29:23.354Z,96.3
2018-06-12T05:30:24.749Z,96.3
2018-06-12T05:31:26.149Z,95.8
2018-06-12T05:32:27.550Z,96.1
2018-06-12T05:33:28.940Z,95.9
2018-06-12T05:34:30.333Z,95.8
2018-06-12T05:35:31.732Z,96.9
2018-06-12T05:36:33.144Z,96.1
2018-06-12T05:37:34.529Z,96.0
2018-06-12T05:38:35.927Z,96.0
2018-06-12T05:39:37.323Z,96.2
2018-06-12T05:40:38.730Z,95.7
2018-06-12T05:41:40.139Z,95.2
2018-06-12T05:42:41.539Z,95.7
2018-06-12T05:43:42.937Z,95.8
2018-06-12T05:44:44.337Z,95.9
2018-06-12T05:45:45.737Z,95.5
2018-06-12T05:46:47.168Z,95.6
2018-06-12T05:47:48.535Z,95.8
2018-06-12T05:48:49.936Z,95.3
2018-06-12T05:49:51.336Z,95.5
2018-06-12T05:50:52.729Z,95.0
2018-06-12T05:51:54.122Z,94.7
2018-06-12T05:52:55.523Z,95.1
2018-06-12T05:53:56.919Z,94.0
2018-06-12T05:54:58.333Z,94.2
2018-06-12T05:55:59.728Z,94.3
2018-06-12T05:57:01.181Z,93.6
2018-06-12T05:58:02.577Z,94.5
2018-06-12T05:59:03.980Z,94.4
2018-06-12T06:00:05.383Z,93.5
2018-06-12T06:01:06.785Z,94.3
2018-06-12T06:02:08.169Z,93.7
2018-06-12T06:03:09.562Z,93.9
2018-06-12T06:04:10.964Z,94.4
2018-06-12T06:05:12.368Z,94.7
2018-06-12T06:06:13.761Z,93.8
2018-06-12T06:07:15.158Z,94.0
2018-06-12T06:08:16.555Z,93.5
2018-06-12T06:09:17.967Z,93.6
2018-06-12T06:10:19.457Z,93.7
2018-06-12T06:11:20.884Z,94.1
2018-06-12T06:12:22.310Z,93.5
2018-06-12T06:13:23.712Z,93.5
2018-06-12T06:14:25.106Z,93.5
2018-06-12T06:15:26.504Z,94.0
2018-06-12T06:16:27.900Z,93.9
2018-06-12T06:17:29.298Z,93.2
2018-06-12T06:18:30.696Z,93.2
2018-06-12T06:19:32.092Z,93.1
2018-06-12T06:20:33.489Z,93.4
2018-06-12T06:21:34.885Z,92.8
2018-06-12T06:22:36.329Z,92.3
2018-06-12T06:23:37.676Z,92.5
2018-06-12T06:24:39.070Z,92.7
2018-06-12T06:25:40.465Z,92.7
2018-06-12T06:26:41.865Z,93.2
2018-06-12T06:27:43.262Z,93.0
2018-06-12T06:28:44.659Z,92.0
2018-06-12T06:29:46.110Z,92.9
2018-06-12T06:30:47.453Z,92.5
2018-06-12T06:31:48.847Z,92.5
2018-06-12T06:32:50.244Z,92.6
2018-06-12T06:33:51.641Z,92.4
2018-06-12T06:34:53.040Z,92.5
2018-06-12T06:35:54.437Z,92.8
2018-06-12T06:36:55.833Z,92.3
2018-06-12T06:37:57.223Z,92.8
2018-06-12T06:38:58.621Z,91.5
2018-06-12T06:40:00.021Z,91.5
2018-06-12T06:41:01.410Z,91.2
2018-06-12T06:42:02.815Z,91.5
2018-06-12T06:43:04.215Z,91.4
2018-06-12T06:44:05.610Z,91.3
2018-06-12T06:45:07.002Z,91.6
2018-06-12T06:46:08.413Z,91.2
2018-06-12T06:47:09.802Z,91.2
2018-06-12T06:48:11.231Z,90.4
2018-06-12T06:49:12.619Z,90.2
2018-06-12T06:50:14.020Z,90.4
2018-06-12T06:51:15.418Z,90.9
2018-06-12T06:52:16.808Z,90.7
2018-06-12T06:53:18.206Z,90.3
2018-06-12T06:54:19.603Z,90.4
2018-06-12T06:55:21.038Z,90.3
2018-06-12T06:56:22.475Z,90.5
2018-06-12T06:57:23.873Z,90.8
2018-06-12T06:58:25.274Z,91.0
2018-06-12T06:59:26.668Z,90.9
2018-06-12T07:00:28.061Z,91.4
2018-06-12T07:01:29.459Z,90.9
2018-06-12T07:02:30.855Z,90.5
2018-06-12T07:03:32.254Z,90.4
2018-06-12T07:04:33.655Z,90.8
2018-06-12T07:05:35.057Z,90.7
2018-06-12T07:06:36.454Z,90.5
2018-06-12T07:07:37.849Z,91.0
2018-06-12T07:08:39.247Z,90.9
2018-06-12T07:09:40.645Z,90.6
2018-06-12T07:10:42.040Z,90.7
2018-06-12T07:11:43.444Z,90.7
2018-06-12T07:12:44.837Z,90.4
2018-06-12T07:13:46.234Z,89.6
2018-06-12T07:14:47.637Z,89.3
2018-06-12T07:15:49.037Z,89.0
2018-06-12T07:16:50.432Z,89.0
2018-06-12T07:17:51.831Z,89.1
2018-06-12T07:18:53.226Z,89.3
2018-06-12T07:19:54.627Z,89.1
2018-06-12T07:20:56.021Z,89.3
2018-06-12T07:21:57.423Z,87.8
2018-06-12T07:22:58.876Z,88.0
2018-06-12T07:24:00.273Z,87.2
2018-06-12T07:25:01.676Z,87.3
2018-06-12T07:26:03.107Z,86.3
2018-06-12T07:27:04.507Z,86.5
2018-06-12T07:28:05.900Z,86.7
2018-06-12T07:29:07.299Z,86.7
2018-06-12T07:30:08.725Z,87.1
2018-06-12T07:31:10.089Z,87.2
2018-06-12T07:32:11.547Z,86.6
2018-06-12T07:33:12.944Z,85.8
2018-06-12T07:34:14.344Z,85.5
2018-06-12T07:35:15.739Z,85.1
2018-06-12T07:36:17.134Z,85.0
2018-06-12T07:37:18.534Z,84.9
2018-06-12T07:38:19.931Z,84.8
2018-06-12T07:39:21.345Z,84.7
2018-06-12T07:40:22.837Z,85.0
2018-06-12T07:41:24.235Z,84.4
2018-06-12T07:42:25.629Z,83.8
2018-06-12T07:43:27.033Z,83.6
2018-06-12T07:44:28.426Z,83.6
2018-06-12T07:45:29.823Z,83.2
2018-06-12T07:46:31.221Z,83.5
2018-06-12T07:47:32.618Z,82.5
2018-06-12T07:48:34.017Z,81.7
2018-06-12T07:49:35.410Z,81.5
2018-06-12T07:50:36.809Z,82.1
2018-06-12T07:51:38.205Z,81.8
2018-06-12T07:52:39.600Z,81.1
2018-06-12T07:53:41.000Z,81.3
2018-06-12T07:54:42.395Z,81.1
2018-06-12T07:55:43.798Z,81.3
2018-06-12T07:56:45.193Z,80.3
2018-06-12T07:57:46.592Z,80.6
2018-06-12T07:58:47.989Z,80.9
2018-06-12T07:59:49.382Z,80.0
2018-06-12T08:00:50.791Z,80.5
2018-06-12T08:01:52.188Z,80.7
2018-06-12T08:02:53.585Z,80.6
2018-06-12T08:03:54.982Z,80.1
2018-06-12T08:04:56.381Z,80.7
2018-06-12T08:05:57.777Z,80.6
2018-06-12T08:06:59.206Z,80.2
2018-06-12T08:08:00.576Z,79.8
2018-06-12T08:09:01.973Z,79.3
2018-06-12T08:10:03.407Z,78.9
2018-06-12T08:11:04.811Z,78.7
2018-06-12T08:12:06.200Z,78.3
2018-06-12T08:13:07.669Z,78.2
2018-06-12T08:14:08.998Z,78.4
2018-06-12T08:15:10.394Z,78.4
2018-06-12T08:16:11.797Z,78.9
2018-06-12T08:17:13.192Z,78.7
2018-06-12T08:18:14.591Z,79.2
2018-06-12T08:19:15.984Z,78.8
2018-06-12T08:20:17.380Z,78.6
2018-06-12T08:21:18.778Z,78.8
2018-06-12T08:22:20.175Z,78.3
2018-06-12T08:23:21.574Z,79.1
2018-06-12T08:24:23.007Z,78.0
2018-06-12T08:25:24.511Z,77.1
2018-06-12T08:26:25.910Z,76.7
2018-06-12T08:27:27.309Z,78.3
2018-06-12T08:28:28.707Z,78.1
2018-06-12T08:29:30.108Z,78.1
2018-06-12T08:30:31.594Z,77.6
2018-06-12T08:31:32.903Z,78.0
2018-06-12T08:32:34.299Z,78.8
2018-06-12T08:33:35.693Z,78.1
2018-06-12T08:34:37.091Z,77.7
2018-06-12T08:35:38.560Z,78.0
2018-06-12T08:36:39.901Z,78.1
2018-06-12T08:37:41.300Z,78.8
2018-06-12T08:38:42.701Z,78.6
2018-06-12T08:39:44.095Z,79.0
2018-06-12T08:40:45.492Z,78.8
2018-06-12T08:41:46.904Z,79.1
2018-06-12T08:42:48.308Z,79.1
2018-06-12T08:43:49.725Z,79.0
2018-06-12T08:44:51.133Z,80.0
2018-06-12T08:45:52.533Z,78.9
2018-06-12T08:46:53.935Z,80.7
2018-06-12T08:47:55.332Z,80.0
2018-06-12T08:48:56.727Z,79.8
2018-06-12T08:49:58.127Z,78.9
2018-06-12T08:50:59.522Z,78.6
2018-06-12T08:52:00.933Z,79.3
2018-06-12T08:53:02.332Z,80.2
2018-06-12T08:54:03.727Z,81.0
2018-06-12T08:55:05.125Z,81.2
2018-06-12T08:56:06.522Z,80.4
2018-06-12T08:57:07.918Z,79.3
2018-06-12T08:58:09.322Z,79.1
2018-06-12T08:59:10.723Z,79.6
2018-06-12T09:00:12.120Z,79.4
2018-06-12T09:01:13.519Z,79.1
2018-06-12T09:02:14.914Z,78.0
2018-06-12T09:03:16.311Z,77.8
2018-06-12T09:04:17.711Z,78.1
2018-06-12T09:05:19.112Z,77.5
2018-06-12T09:06:20.514Z,77.6
2018-06-12T09:07:21.914Z,78.1
2018-06-12T09:08:23.310Z,77.6
2018-06-12T09:09:24.835Z,77.9
2018-06-12T09:10:26.236Z,78.9
2018-06-12T09:11:27.630Z,79.0
2018-06-12T09:12:29.034Z,79.2
2018-06-12T09:13:30.428Z,77.5
2018-06-12T09:14:31.832Z,77.8
2018-06-12T09:15:33.226Z,78.2
2018-06-12T09:16:34.628Z,77.6
2018-06-12T09:17:36.031Z,77.1
2018-06-12T09:18:37.428Z,76.0
2018-06-12T09:19:38.842Z,75.3
2018-06-12T09:20:40.240Z,75.5
2018-06-12T09:21:41.639Z,75.3
2018-06-12T09:22:43.038Z,76.2
2018-06-12T09:23:44.429Z,77.5
2018-06-12T09:24:45.829Z,77.8
2018-06-12T09:25:47.228Z,77.7
2018-06-12T09:26:48.634Z,77.5
2018-06-12T09:27:50.030Z,78.2
2018-06-12T09:28:51.429Z,78.0
2018-06-12T09:29:52.829Z,77.9
2018-06-12T09:30:54.224Z,78.1
2018-06-12T09:31:55.621Z,78.2
2018-06-12T09:32:57.018Z,78.0
2018-06-12T09:33:58.427Z,77.6
2018-06-12T09:34:59.821Z,76.7
2018-06-12T09:36:01.221Z,77.0
2018-06-12T09:37:02.620Z,76.9
2018-06-12T09:38:04.011Z,77.2
2018-06-12T09:39:05.409Z,77.4
2018-06-12T09:40:06.809Z,77.3
2018-06-12T09:41:08.209Z,77.5
2018-06-12T09:42:09.617Z,77.4
2018-06-12T09:43:11.012Z,78.1
2018-06-12T09:44:12.403Z,77.4
2018-06-12T09:45:13.803Z,76.1
2018-06-12T09:46:15.200Z,76.2
2018-06-12T09:47:16.599Z,76.0
2018-06-12T09:48:18.016Z,76.2
2018-06-12T09:49:19.416Z,76.0
2018-06-12T09:50:20.814Z,77.0
2018-06-12T09:51:22.215Z,76.5
2018-06-12T09:52:23.613Z,75.3
2018-06-12T09:53:25.012Z,75.2
2018-06-12T09:54:26.480Z,75.3
2018-06-12T09:55:27.908Z,75.6
2018-06-12T09:56:29.308Z,74.5
2018-06-12T09:57:30.708Z,74.8
2018-06-12T09:58:32.102Z,75.3
2018-06-12T09:59:33.501Z,74.5
2018-06-12T10:00:34.900Z,73.5
2018-06-12T10:01:36.296Z,73.4
2018-06-12T10:02:37.701Z,72.9
2018-06-12T10:03:39.100Z,72.9
2018-06-12T10:04:40.501Z,74.0
2018-06-12T10:05:41.899Z,73.4
2018-06-12T10:06:43.305Z,73.0
2018-06-12T10:07:44.703Z,73.1
2018-06-12T10:08:46.102Z,74.1
2018-06-12T10:09:47.542Z,73.9
2018-06-12T10:10:48.916Z,73.7
2018-06-12T10:11:50.317Z,73.9
2018-06-12T10:12:51.714Z,73.3
2018-06-12T10:13:53.113Z,73.3
2018-06-12T10:14:54.516Z,73.1
2018-06-12T10:15:55.909Z,73.0
2018-06-12T10:16:57.311Z,73.5
2018-06-12T10:17:58.708Z,73.1
2018-06-12T10:19:00.113Z,73.1
2018-06-12T10:20:01.509Z,74.0
2018-06-12T10:21:02.908Z,72.9
2018-06-12T10:22:04.313Z,73.7
2018-06-12T10:23:05.712Z,72.8
2018-06-12T10:24:07.109Z,73.0
2018-06-12T10:25:08.513Z,73.2
2018-06-12T10:26:09.917Z,72.9
2018-06-12T10:27:11.310Z,72.7
2018-06-12T10:28:12.714Z,72.9
2018-06-12T10:29:14.111Z,72.9
2018-06-12T10:30:15.513Z,73.4
2018-06-12T10:31:16.911Z,73.1
2018-06-12T10:32:18.313Z,73.2
2018-06-12T10:33:19.712Z,72.3
2018-06-12T10:34:21.112Z,73.2
2018-06-12T10:35:22.506Z,73.1
2018-06-12T10:36:23.903Z,73.6
2018-06-12T10:37:25.401Z,73.1
2018-06-12T10:38:26.697Z,73.3
2018-06-12T10:39:28.132Z,74.3
2018-06-12T10:40:29.551Z,74.2
2018-06-12T10:41:30.950Z,73.1
2018-06-12T10:42:32.346Z,72.8
2018-06-12T10:43:33.797Z,72.7
2018-06-12T10:44:35.145Z,72.6
2018-06-12T10:45:36.545Z,72.5
2018-06-12T10:46:37.982Z,72.5
2018-06-12T10:47:39.381Z,72.9
2018-06-12T10:48:40.782Z,72.0
2018-06-12T10:49:42.180Z,72.2
2018-06-12T10:50:43.578Z,72.1
2018-06-12T10:51:44.979Z,72.2
2018-06-12T10:52:46.383Z,71.6
2018-06-12T10:53:47.782Z,71.7
2018-06-12T10:54:49.190Z,72.1
2018-06-12T10:55:50.580Z,72.1
2018-06-12T10:56:51.979Z,70.7
2018-06-12T10:57:53.377Z,71.4
2018-06-12T10:58:54.781Z,72.2
2018-06-12T10:59:56.179Z,70.7
2018-06-12T11:00:57.574Z,69.3
2018-06-12T11:01:58.977Z,69.1
2018-06-12T11:03:00.375Z,70.0
2018-06-12T11:04:01.774Z,70.2
2018-06-12T11:05:03.175Z,69.9
2018-06-12T11:06:04.575Z,69.9
2018-06-12T11:07:05.972Z,69.4
2018-06-12T11:08:07.373Z,71.7
2018-06-12T11:09:08.775Z,71.7
2018-06-12T11:10:10.171Z,72.0
2018-06-12T11:11:11.572Z,73.0
2018-06-12T11:12:12.974Z,73.1
2018-06-12T11:13:14.374Z,72.9
2018-06-12T11:14:15.782Z,74.0
2018-06-12T11:15:17.176Z,72.9
2018-06-12T11:16:18.577Z,72.4
2018-06-12T11:17:19.973Z,72.8
2018-06-12T11:18:21.537Z,72.9
2018-06-12T11:19:22.967Z,74.1
2018-06-12T11:20:24.363Z,72.9
2018-06-12T11:21:25.767Z,73.3
2018-06-12T11:22:27.167Z,74.1
2018-06-12T11:23:28.646Z,74.1
2018-06-12T11:24:30.053Z,73.2
2018-06-12T11:25:31.454Z,74.0
2018-06-12T11:26:32.852Z,73.8
2018-06-12T11:27:34.251Z,74.1
2018-06-12T11:28:35.654Z,73.2
2018-06-12T11:29:37.056Z,74.1
2018-06-12T11:30:38.459Z,74.0
2018-06-12T11:31:39.859Z,74.7
2018-06-12T11:32:41.257Z,75.3
2018-06-12T11:33:42.656Z,75.6
2018-06-12T11:34:44.060Z,75.6
2018-06-12T11:35:45.458Z,76.6
2018-06-12T11:36:46.858Z,77.0
2018-06-12T11:37:48.301Z,77.9
2018-06-12T11:38:49.656Z,78.2
2018-06-12T11:39:51.055Z,78.8
2018-06-12T11:40:52.451Z,79.3
2018-06-12T11:41:53.852Z,78.9
2018-06-12T11:42:55.251Z,79.6
2018-06-12T11:43:56.650Z,80.1
2018-06-12T11:44:58.052Z,78.9
2018-06-12T11:45:59.449Z,79.0
2018-06-12T11:47:00.848Z,79.0
2018-06-12T11:48:02.245Z,80.5
2018-06-12T11:49:03.646Z,81.5
2018-06-12T11:50:05.050Z,81.8
2018-06-12T11:51:06.449Z,82.0
2018-06-12T11:52:07.858Z,82.7
2018-06-12T11:53:09.246Z,83.3
2018-06-12T11:54:10.642Z,84.4
2018-06-12T11:55:12.044Z,83.7
2018-06-12T11:56:13.447Z,83.7
2018-06-12T11:57:14.846Z,84.1
2018-06-12T11:58:16.243Z,83.9
2018-06-12T11:59:17.643Z,82.0
2018-06-12T12:00:19.043Z,82.7
2018-06-12T12:01:20.442Z,81.8
2018-06-12T12:02:21.846Z,82.8
2018-06-12T12:03:23.246Z,83.3
2018-06-12T12:04:24.644Z,83.6
2018-06-12T12:05:26.044Z,83.9
2018-06-12T12:06:27.446Z,83.3
2018-06-12T12:07:28.842Z,84.0
2018-06-12T12:08:30.241Z,84.0
2018-06-12T12:09:31.679Z,84.1
2018-06-12T12:10:33.949Z,84.5
2018-06-12T12:11:35.349Z,83.9
2018-06-12T12:12:36.748Z,85.0
2018-06-12T12:13:38.149Z,84.1
2018-06-12T12:14:39.546Z,83.8
2018-06-12T12:15:40.937Z,83.4
2018-06-12T12:16:42.341Z,83.9
2018-06-12T12:17:43.738Z,83.6
2018-06-12T12:18:45.138Z,84.5
2018-06-12T12:19:46.538Z,83.7
2018-06-12T12:20:48.252Z,84.8
2018-06-12T12:21:49.633Z,83.9
2018-06-12T12:22:51.030Z,84.0
2018-06-12T12:23:52.430Z,83.9
2018-06-12T12:24:53.832Z,83.7
2018-06-12T12:25:55.235Z,84.1
2018-06-12T12:26:56.636Z,84.7
2018-06-12T12:27:58.041Z,85.0
2018-06-12T12:28:59.437Z,84.4
2018-06-12T12:30:00.840Z,83.9
2018-06-12T12:31:02.239Z,83.8
2018-06-12T12:32:03.639Z,84.0
2018-06-12T12:33:05.040Z,83.7
2018-06-12T12:34:06.438Z,81.9
2018-06-12T12:35:08.714Z,82.9
2018-06-12T12:36:10.110Z,83.0
2018-06-12T12:37:11.507Z,83.2
2018-06-12T12:38:12.906Z,84.2
2018-06-12T12:39:14.308Z,85.7
2018-06-12T12:40:15.708Z,86.3
2018-06-12T12:41:17.108Z,86.5
2018-06-12T12:42:18.512Z,85.8
2018-06-12T12:43:19.916Z,87.2
2018-06-12T12:44:21.309Z,87.4
2018-06-12T12:45:22.711Z,87.7
2018-06-12T12:46:24.105Z,87.6
2018-06-12T12:47:25.505Z,87.2
2018-06-12T12:48:27.023Z,86.3
2018-06-12T12:49:28.308Z,87.6
2018-06-12T12:50:29.767Z,86.3
2018-06-12T12:52:32.564Z,87.6
2018-06-12T12:53:33.961Z,87.1
2018-06-12T12:54:35.360Z,86.0
2018-06-12T12:55:36.768Z,86.0
2018-06-12T12:56:38.167Z,86.0
2018-06-12T12:57:39.563Z,85.7
2018-06-12T12:58:40.965Z,87.0
2018-06-12T12:59:42.367Z,86.6
2018-06-12T13:00:43.764Z,86.9
2018-06-12T13:01:45.167Z,87.3
2018-06-12T13:02:46.566Z,87.3
2018-06-12T13:03:47.967Z,88.3
2018-06-12T13:04:49.367Z,87.4
2018-06-12T13:05:50.766Z,89.1
2018-06-12T13:06:52.161Z,89.8
2018-06-12T13:07:53.560Z,89.3
2018-06-12T13:08:54.958Z,89.1
2018-06-12T13:09:56.360Z,89.3
2018-06-12T13:10:57.760Z,89.3
2018-06-12T13:11:59.159Z,89.3
2018-06-12T13:13:00.559Z,89.7
2018-06-12T13:14:02.027Z,90.3
2018-06-12T13:15:03.364Z,90.5
2018-06-12T13:16:04.751Z,90.5
2018-06-12T13:17:06.149Z,90.0
2018-06-12T13:18:07.552Z,90.7
2018-06-12T13:19:08.951Z,91.0
2018-06-12T13:20:10.396Z,91.7
2018-06-12T13:21:11.750Z,91.5
2018-06-12T13:22:13.141Z,91.9
2018-06-12T13:23:14.546Z,91.6
2018-06-12T13:24:15.945Z,91.0
2018-06-12T13:25:17.349Z,91.5
2018-06-12T13:26:18.748Z,91.5
2018-06-12T13:27:20.144Z,90.9
2018-06-12T13:28:21.549Z,91.3
2018-06-12T13:29:22.949Z,90.8
2018-06-12T13:30:24.353Z,90.8
2018-06-12T13:31:25.749Z,91.7
2018-06-12T13:32:27.150Z,91.9
2018-06-12T13:33:28.612Z,91.4
2018-06-12T13:34:29.944Z,91.7
2018-06-12T13:35:31.350Z,92.5
2018-06-12T13:36:32.755Z,92.9
2018-06-12T13:37:34.154Z,92.4
2018-06-12T13:38:35.554Z,92.7